createdAt,value
2018-09-02T00:00:56.204Z,96.77
2018-09-02T00:03:26.424Z,97.03
2018-09-02T00:05:56.336Z,96.94
2018-09-02T00:08:27.348Z,97.33
2018-09-02T00:10:57.396Z,97.90
2018-09-02T00:13:28.993Z,97.83
2018-09-02T00:15:59.136Z,96.59
2018-09-02T00:18:34.490Z,97.37
2018-09-02T00:41:46.658Z,98.01
2018-09-02T00:44:16.818Z,97.80
2018-09-02T00:46:46.889Z,97.41
2018-09-02T00:49:17.173Z,97.55
2018-09-02T00:51:47.457Z,97.58
2018-09-02T00:54:18.025Z,97.84
2018-09-02T00:56:48.473Z,98.11
2018-09-02T00:59:18.544Z,97.48
2018-09-02T01:01:48.357Z,97.60
2018-09-02T01:04:19.314Z,97.99
2018-09-02T01:06:49.472Z,97.97
2018-09-02T01:09:21.420Z,98.23
2018-09-02T01:11:52.264Z,98.04
2018-09-02T01:14:22.589Z,97.96
2018-09-02T01:16:52.881Z,97.45
2018-09-02T01:19:22.865Z,98.18
2018-09-02T01:21:53.222Z,98.15
2018-09-02T01:24:23.205Z,98.14
2018-09-02T01:26:54.090Z,97.51
2018-09-02T01:29:23.943Z,98.23
2018-09-02T01:31:54.345Z,97.62
2018-09-02T01:36:50.341Z,97.62
2018-09-02T01:51:05.264Z,97.74
2018-09-02T01:59:54.879Z,98.39
2018-09-02T02:02:26.705Z,98.37
2018-09-02T02:04:56.795Z,98.90
2018-09-02T02:07:26.870Z,98.55
2018-09-02T02:09:56.860Z,97.78
2018-09-02T02:12:26.970Z,98.05
2018-09-02T02:14:56.827Z,97.90
2018-09-02T02:17:27.016Z,97.95
2018-09-02T02:19:57.122Z,98.29
2018-09-02T02:22:27.198Z,97.78
2018-09-02T02:24:57.360Z,98.25
2018-09-02T02:30:30.924Z,98.22
2018-09-02T02:33:01.243Z,98.13
2018-09-02T02:35:31.323Z,98.40
2018-09-02T02:38:01.381Z,98.07
2018-09-02T02:40:31.643Z,97.47
2018-09-02T02:43:01.643Z,97.39
2018-09-02T02:45:31.509Z,97.68
2018-09-02T02:48:01.589Z,97.69
2018-09-02T02:50:31.980Z,98.00
2018-09-02T02:53:05.467Z,97.89
2018-09-02T02:55:36.429Z,98.28
2018-09-02T02:58:07.239Z,97.54
2018-09-02T03:00:37.230Z,98.12
2018-09-02T03:03:07.313Z,97.47
2018-09-02T03:05:37.717Z,97.82
2018-09-02T03:08:07.953Z,98.01
2018-09-02T03:10:38.022Z,97.57
2018-09-02T03:13:08.006Z,98.07
2018-09-02T03:15:37.910Z,98.28
2018-09-02T03:18:07.796Z,97.76
2018-09-02T03:20:37.641Z,97.81
2018-09-02T03:23:07.608Z,98.29
2018-09-02T03:25:37.522Z,98.10
2018-09-02T03:28:07.478Z,98.08
2018-09-02T03:30:37.945Z,98.16
2018-09-02T03:33:09.545Z,98.05
2018-09-02T03:35:39.405Z,97.99
2018-09-02T03:38:09.743Z,97.34
2018-09-02T03:40:39.792Z,98.20
2018-09-02T03:43:10.235Z,97.63
2018-09-02T03:45:41.222Z,97.36
2018-09-02T03:48:12.073Z,97.59
2018-09-02T03:50:42.643Z,96.66
2018-09-02T03:53:12.881Z,97.17
2018-09-02T03:55:42.904Z,96.78
2018-09-02T03:58:12.955Z,97.11
2018-09-02T04:00:43.295Z,96.53
2018-09-02T04:03:13.593Z,96.90
2018-09-02T04:05:43.483Z,97.46
2018-09-02T04:08:13.928Z,96.86
2018-09-02T04:10:43.959Z,97.68
2018-09-02T04:13:14.013Z,97.42
2018-09-02T04:15:43.799Z,97.37
2018-09-02T04:18:13.863Z,97.21
2018-09-02T04:20:43.642Z,97.78
2018-09-02T04:23:13.636Z,97.21
2018-09-02T04:25:43.485Z,97.14
2018-09-02T04:28:14.020Z,97.86
2018-09-02T04:30:43.922Z,97.98
2018-09-02T04:33:14.024Z,98.18
2018-09-02T04:35:43.995Z,98.20
2018-09-02T04:38:13.957Z,97.56
2018-09-02T04:40:44.020Z,97.52
2018-09-02T04:43:14.270Z,97.61
2018-09-02T04:45:44.188Z,98.17
2018-09-02T04:48:14.204Z,97.41
2018-09-02T04:50:44.051Z,97.43
2018-09-02T04:53:14.221Z,97.91
2018-09-02T04:55:44.443Z,97.25
2018-09-02T04:58:14.323Z,97.74
2018-09-02T05:00:44.182Z,97.35
2018-09-02T05:03:14.223Z,97.92
2018-09-02T05:05:43.954Z,98.00
2018-09-02T05:08:13.863Z,97.50
2018-09-02T05:10:43.642Z,97.94
2018-09-02T05:13:13.802Z,98.02
2018-09-02T05:15:43.642Z,97.56
2018-09-02T05:18:13.583Z,98.87
2018-09-02T05:20:43.422Z,97.58
2018-09-02T05:23:13.342Z,97.83
2018-09-02T05:25:43.622Z,97.95
2018-09-02T05:28:13.883Z,97.49
2018-09-02T05:30:43.776Z,98.11
2018-09-02T05:33:14.046Z,98.03
2018-09-02T05:35:44.002Z,97.73
2018-09-02T05:38:13.905Z,98.25
2018-09-02T05:40:43.627Z,98.01
2018-09-02T05:43:13.728Z,98.04
2018-09-02T05:45:43.484Z,97.36
2018-09-02T05:48:13.324Z,97.85
2018-09-02T05:50:43.143Z,97.86
2018-09-02T05:53:13.102Z,98.23
2018-09-02T05:55:42.922Z,98.01
2018-09-02T05:58:12.922Z,98.12
2018-09-02T06:00:42.662Z,98.06
2018-09-02T06:03:12.601Z,98.19
2018-09-02T06:05:42.542Z,97.81
2018-09-02T06:08:12.581Z,98.02
2018-09-02T06:10:42.661Z,98.12
2018-09-02T06:13:12.930Z,98.05
2018-09-02T06:15:43.021Z,97.54
2018-09-02T06:18:13.521Z,97.24
2018-09-02T06:20:43.561Z,97.60
2018-09-02T06:23:13.441Z,97.28
2018-09-02T06:25:43.621Z,97.55
2018-09-02T06:28:19.320Z,97.75
2018-09-02T06:30:49.121Z,97.13
2018-09-02T06:33:18.980Z,97.15
2018-09-02T06:35:49.042Z,97.33
2018-09-02T06:38:19.140Z,97.76
2018-09-02T06:40:49.280Z,97.13
2018-09-02T06:43:20.604Z,96.82
2018-09-02T06:45:50.956Z,97.26
2018-09-02T06:48:22.940Z,96.95
2018-09-02T06:50:53.079Z,97.21
2018-09-02T06:53:23.367Z,96.65
2018-09-02T06:55:53.800Z,97.39
2018-09-02T06:58:24.979Z,97.33
2018-09-02T07:00:55.039Z,96.55
2018-09-02T07:03:26.394Z,96.30
2018-09-02T07:05:57.620Z,97.05
2018-09-02T07:08:27.981Z,96.49
2018-09-02T07:10:58.904Z,96.41
2018-09-02T07:13:29.380Z,96.54
2018-09-02T07:15:59.880Z,96.14
2018-09-02T07:18:30.177Z,96.83
2018-09-02T07:21:00.118Z,96.04
2018-09-02T07:23:31.204Z,97.45
2018-09-02T07:26:01.099Z,96.01
2018-09-02T07:28:32.797Z,96.59
2018-09-02T07:31:02.796Z,96.89
2018-09-02T07:33:33.873Z,95.47
2018-09-02T07:36:03.903Z,95.43
2018-09-02T07:38:35.408Z,94.30
2018-09-02T07:41:05.379Z,94.55
2018-09-02T07:43:38.150Z,94.96
2018-09-02T07:46:08.100Z,94.57
2018-09-02T07:48:40.452Z,95.92
2018-09-02T07:51:10.396Z,94.90
2018-09-02T07:53:41.156Z,94.23
2018-09-02T07:56:11.066Z,94.60
2018-09-02T07:58:41.723Z,95.15
2018-09-02T08:01:11.789Z,95.54
2018-09-02T08:03:43.764Z,94.94
2018-09-02T08:06:13.872Z,95.33
2018-09-02T08:08:44.939Z,94.61
2018-09-02T08:11:15.010Z,94.50
2018-09-02T08:13:46.111Z,94.76
2018-09-02T08:16:16.094Z,93.88
2018-09-02T08:18:46.252Z,93.88
2018-09-02T08:21:16.444Z,95.53
2018-09-02T08:23:48.419Z,93.96
2018-09-02T08:26:18.328Z,95.16
2018-09-02T08:28:49.975Z,94.81
2018-09-02T08:31:20.305Z,93.06
2018-09-02T08:33:52.659Z,92.97
2018-09-02T08:36:22.789Z,93.50
2018-09-02T08:38:54.325Z,93.22
2018-09-02T08:41:24.615Z,93.10
2018-09-02T08:43:56.858Z,93.68
2018-09-02T08:46:26.974Z,94.51
2018-09-02T08:48:57.063Z,93.67
2018-09-02T08:51:26.897Z,93.90
2018-09-02T08:53:56.927Z,94.64
2018-09-02T08:56:26.891Z,94.45
2018-09-02T08:58:56.769Z,94.12
2018-09-02T09:01:26.627Z,93.86
2018-09-02T09:03:56.578Z,92.76
2018-09-02T09:06:27.145Z,92.25
2018-09-02T09:08:57.910Z,92.09
2018-09-02T09:11:27.721Z,90.35
2018-09-02T09:13:57.775Z,91.15
2018-09-02T09:16:27.711Z,91.83
2018-09-02T09:18:57.696Z,89.81
2018-09-02T09:21:27.764Z,92.25
2018-09-02T09:23:57.870Z,93.50
2018-09-02T09:26:27.764Z,92.38
2018-09-02T09:28:58.560Z,92.24
2018-09-02T09:31:28.466Z,92.19
2018-09-02T09:33:59.128Z,91.95
2018-09-02T09:36:29.076Z,91.41
2018-09-02T09:38:59.040Z,90.80
2018-09-02T09:41:28.927Z,92.34
2018-09-02T09:43:58.914Z,91.88
2018-09-02T09:46:28.805Z,91.07
2018-09-02T09:48:58.780Z,89.97
2018-09-02T09:51:28.724Z,91.28
2018-09-02T09:53:58.580Z,92.43
2018-09-02T09:56:28.533Z,92.60
2018-09-02T09:58:58.397Z,89.95
2018-09-02T10:01:28.406Z,90.23
2018-09-02T10:03:58.261Z,92.46
2018-09-02T10:06:28.053Z,90.39
2018-09-02T10:08:58.637Z,88.80
2018-09-02T10:11:28.415Z,89.88
2018-09-02T10:13:58.856Z,90.25
2018-09-02T10:16:28.908Z,89.29
2018-09-02T10:18:58.969Z,92.14
2018-09-02T10:21:28.891Z,89.35
2018-09-02T10:23:58.801Z,89.53
2018-09-02T10:26:28.572Z,88.87
2018-09-02T10:28:58.424Z,88.88
2018-09-02T10:31:28.415Z,88.30
2018-09-02T10:33:58.281Z,89.64
2018-09-02T10:36:28.140Z,87.99
2018-09-02T10:38:58.004Z,86.73
2018-09-02T10:41:28.082Z,85.81
2018-09-02T10:43:58.214Z,87.30
2018-09-02T10:46:28.153Z,87.35
2018-09-02T10:48:58.040Z,86.97
2018-09-02T10:51:27.907Z,87.46
2018-09-02T10:53:57.906Z,86.90
2018-09-02T10:56:27.697Z,87.49
2018-09-02T10:58:57.922Z,87.14
2018-09-02T11:01:27.883Z,86.06
2018-09-02T11:03:57.628Z,89.28
2018-09-02T11:06:27.999Z,87.22
2018-09-02T11:08:57.791Z,84.21
2018-09-02T11:11:27.858Z,84.40
2018-09-02T11:13:57.713Z,83.84
2018-09-02T11:16:27.930Z,86.51
2018-09-02T11:18:57.722Z,85.93
2018-09-02T11:21:27.775Z,85.97
2018-09-02T11:23:57.617Z,83.96
2018-09-02T11:26:27.602Z,84.78
2018-09-02T11:28:57.535Z,84.38
2018-09-02T11:31:27.491Z,80.91
2018-09-02T11:33:57.394Z,83.45
2018-09-02T11:36:27.330Z,85.23
2018-09-02T11:38:57.227Z,84.55
2018-09-02T11:41:27.193Z,83.09
2018-09-02T11:43:56.962Z,82.00
2018-09-02T11:46:26.974Z,80.88
2018-09-02T11:48:56.847Z,81.45
2018-09-02T11:51:26.836Z,85.65
2018-09-02T11:53:56.569Z,81.12
2018-09-02T11:56:26.436Z,77.98
2018-09-02T11:58:56.178Z,78.74
2018-09-02T12:01:26.195Z,80.00
2018-09-02T12:03:56.041Z,78.30
2018-09-02T12:06:26.874Z,80.45
2018-09-02T12:08:57.124Z,79.43
2018-09-02T12:11:28.239Z,82.37
2018-09-02T12:13:58.155Z,80.33
2018-09-02T12:16:28.313Z,79.76
2018-09-02T12:18:58.369Z,82.61
2018-09-02T12:21:28.432Z,79.61
2018-09-02T12:23:58.810Z,78.58
2018-09-02T12:26:28.735Z,81.43
2018-09-02T12:28:58.564Z,80.92
2018-09-02T12:31:28.547Z,84.04
2018-09-02T12:33:58.441Z,84.75
2018-09-02T12:36:28.348Z,85.32
2018-09-02T12:38:58.275Z,85.78
2018-09-02T12:41:28.157Z,86.05
2018-09-02T12:43:58.077Z,86.27
2018-09-02T12:46:27.971Z,87.39
2018-09-02T12:48:57.780Z,86.63
2018-09-02T12:51:27.962Z,82.57
2018-09-02T12:53:57.877Z,82.27
2018-09-02T12:56:27.702Z,82.08
2018-09-02T12:58:57.713Z,80.58
2018-09-02T13:01:27.768Z,79.48
2018-09-02T13:03:57.600Z,78.44
2018-09-02T13:06:27.652Z,79.61
2018-09-02T13:08:57.473Z,78.78
2018-09-02T13:11:27.407Z,80.20
2018-09-02T13:13:57.219Z,76.30
2018-09-02T13:16:27.028Z,74.72
2018-09-02T13:18:58.082Z,73.63
2018-09-02T13:21:28.134Z,72.90
2018-09-02T13:23:57.927Z,72.00
2018-09-02T13:26:28.123Z,71.42
2018-09-02T13:28:58.015Z,73.02
2018-09-02T13:31:28.148Z,73.64
2018-09-02T13:33:58.133Z,74.79
2018-09-02T13:36:28.660Z,70.16
2018-09-02T13:38:58.674Z,70.39
2018-09-02T13:41:28.535Z,73.17
2018-09-02T13:43:58.273Z,68.53
2018-09-02T13:49:02.809Z,70.13
2018-09-02T13:51:32.790Z,69.23
2018-09-02T13:54:02.666Z,66.76
2018-09-02T13:56:32.696Z,68.94
2018-09-02T13:59:02.537Z,63.31
2018-09-02T14:01:32.497Z,62.97
2018-09-02T14:04:02.522Z,65.00
2018-09-02T14:06:32.766Z,66.61
2018-09-02T14:09:02.699Z,69.71
2018-09-02T14:11:32.592Z,64.91
2018-09-02T14:14:02.442Z,66.52
2018-09-02T14:16:32.454Z,71.45
2018-09-02T14:19:02.199Z,68.92
2018-09-02T14:21:32.268Z,69.03
2018-09-02T14:24:02.026Z,67.17
2018-09-02T14:26:33.039Z,65.79
2018-09-02T14:29:02.860Z,68.20
2018-09-02T14:31:32.827Z,72.14
2018-09-02T14:34:02.670Z,70.17
2018-09-02T14:36:33.086Z,74.99
2018-09-02T14:39:03.012Z,74.42
2018-09-02T14:41:32.952Z,75.71
2018-09-02T14:44:02.879Z,76.90
2018-09-02T14:46:32.833Z,73.87
2018-09-02T14:49:02.594Z,72.77
2018-09-02T14:51:32.620Z,76.25
2018-09-02T14:54:02.635Z,77.36
2018-09-02T14:57:07.493Z,77.39
2018-09-02T14:59:37.937Z,79.25
2018-09-02T15:02:08.397Z,74.83
2018-09-02T15:04:38.159Z,81.25
2018-09-02T15:07:09.310Z,80.20
2018-09-02T15:09:39.314Z,77.23
2018-09-02T15:12:09.193Z,74.27
2018-09-02T15:14:38.872Z,79.44
2018-09-02T15:17:09.086Z,80.69
2018-09-02T15:19:38.987Z,75.97
2018-09-02T15:22:09.554Z,73.53
2018-09-02T15:24:39.346Z,71.33
2018-09-02T15:27:09.376Z,75.63
2018-09-02T15:29:39.271Z,76.03
2018-09-02T15:32:09.601Z,77.16
2018-09-02T15:34:39.447Z,78.23
2018-09-02T15:37:10.075Z,74.75
2018-09-02T15:39:39.868Z,80.60
2018-09-02T15:42:11.933Z,80.88
2018-09-02T15:44:41.748Z,81.45
2018-09-02T15:47:11.886Z,78.21
2018-09-02T15:49:41.776Z,81.06
2018-09-02T15:52:12.446Z,83.93
2018-09-02T15:54:42.367Z,82.18
2018-09-02T15:57:13.100Z,83.92
2018-09-02T15:59:42.832Z,85.28
2018-09-02T16:04:48.332Z,86.89
2018-09-02T16:07:18.242Z,87.03
2018-09-02T16:09:48.045Z,86.11
2018-09-02T16:12:18.202Z,85.13
2018-09-02T16:14:47.945Z,85.41
2018-09-02T16:17:17.772Z,86.54
2018-09-02T16:19:47.630Z,86.16
2018-09-02T16:22:17.503Z,85.96
2018-09-02T16:24:48.272Z,88.07
2018-09-02T16:27:18.431Z,89.24
2018-09-02T16:29:48.332Z,88.89
2018-09-02T16:32:18.664Z,89.99
2018-09-02T16:34:48.864Z,89.77
2018-09-02T16:37:19.689Z,88.87
2018-09-02T16:39:49.587Z,89.37
2018-09-02T16:42:19.973Z,88.94
2018-09-02T16:44:50.030Z,89.58
2018-09-02T16:47:20.301Z,89.04
2018-09-02T16:49:50.703Z,87.78
2018-09-02T16:52:20.911Z,88.24
2018-09-02T16:54:51.090Z,88.88
2018-09-02T16:57:21.342Z,88.72
2018-09-02T16:59:57.770Z,89.79
2018-09-02T17:58:32.102Z,89.44
2018-09-02T18:01:02.431Z,94.51
2018-09-02T18:03:32.751Z,94.80
2018-09-02T18:06:02.760Z,94.66
2018-09-02T18:08:32.935Z,93.86
2018-09-02T18:11:03.242Z,94.74
2018-09-02T18:13:33.825Z,94.77
2018-09-02T18:16:04.114Z,94.18
2018-09-02T18:18:35.214Z,94.09
2018-09-02T18:21:05.290Z,95.00
2018-09-02T18:23:35.572Z,94.18
2018-09-02T18:26:05.773Z,94.72
2018-09-02T18:31:14.120Z,93.81
2018-09-02T18:33:44.653Z,94.03
2018-09-02T18:36:15.048Z,94.27
2018-09-02T18:41:19.995Z,94.22
2018-09-02T18:43:50.749Z,93.30
2018-09-02T18:46:30.310Z,94.29
2018-09-02T18:52:21.678Z,93.88
2018-09-02T18:54:53.113Z,93.95
2018-09-02T18:57:23.890Z,94.78
2018-09-02T18:59:54.677Z,94.63
2018-09-02T19:02:24.998Z,93.63
2018-09-02T19:04:55.509Z,94.08
2018-09-02T19:07:27.229Z,94.45
2018-09-02T19:09:57.292Z,94.68
2018-09-02T19:12:28.089Z,94.39
2018-09-02T19:14:58.329Z,95.68
2018-09-02T19:17:29.779Z,95.69
2018-09-02T19:20:00.077Z,95.72
2018-09-02T19:22:30.939Z,94.84
2018-09-02T19:25:01.731Z,95.47
2018-09-02T19:27:32.417Z,95.58
2018-09-02T19:30:02.892Z,95.62
2018-09-02T19:32:34.381Z,95.75
2018-09-02T19:35:10.070Z,95.31
2018-09-02T19:37:40.671Z,96.03
2018-09-02T19:40:11.477Z,95.27
2018-09-02T19:42:44.137Z,96.15
2018-09-02T19:45:14.517Z,96.10
2018-09-02T19:47:44.814Z,95.26
2018-09-02T19:50:14.971Z,95.74
2018-09-02T19:55:25.958Z,95.16
2018-09-02T19:57:57.060Z,94.82
2018-09-02T20:00:27.237Z,95.13
2018-09-02T20:02:57.726Z,95.53
2018-09-02T20:05:29.258Z,94.68
2018-09-02T20:07:59.557Z,95.11
2018-09-02T20:10:30.603Z,95.25
2018-09-02T20:13:02.876Z,95.72
2018-09-02T20:15:33.948Z,95.75
2018-09-02T20:18:04.521Z,95.66
2018-09-02T20:20:34.849Z,95.84
2018-09-02T20:23:05.568Z,96.49
2018-09-02T20:25:36.555Z,95.72
2018-09-02T20:28:06.819Z,96.51
2018-09-02T20:30:36.897Z,95.96
2018-09-02T20:33:07.115Z,95.72
2018-09-02T20:35:37.187Z,96.63
2018-09-02T20:38:08.145Z,96.42
2018-09-02T20:40:38.989Z,95.96
2018-09-02T20:43:10.683Z,95.31
2018-09-02T20:45:41.427Z,95.61
2018-09-02T20:48:12.122Z,95.90
2018-09-02T20:53:38.860Z,95.16
2018-09-02T20:56:14.211Z,95.76
2018-09-02T21:04:35.626Z,96.03
2018-09-02T21:09:57.631Z,96.64
2018-09-02T21:12:50.424Z,95.87
2018-09-02T23:07:47.009Z,97.74
